createdAt,value
2022-12-18T00:00:23.494Z,56.60
2022-12-18T00:01:23.550Z,56.50
2022-12-18T00:02:23.476Z,57.40
2022-12-18T00:03:23.596Z,59.80
2022-12-18T00:04:23.631Z,58.10
2022-12-18T00:05:23.452Z,59.50
2022-12-18T00:06:23.432Z,58.50
2022-12-18T00:07:23.420Z,57.80
2022-12-18T00:08:23.403Z,59.20
2022-12-18T00:09:24.066Z,59.20
2022-12-18T00:10:23.384Z,56.00
2022-12-18T00:11:23.376Z,56.70
2022-12-18T00:12:23.366Z,58.90
2022-12-18T00:13:23.345Z,58.20
2022-12-18T00:14:23.343Z,57.30
2022-12-18T00:15:23.323Z,55.70
2022-12-18T00:16:23.408Z,58.10
2022-12-18T00:17:23.293Z,57.20
2022-12-18T00:18:23.284Z,58.70
2022-12-18T00:19:23.274Z,57.40
2022-12-18T00:20:23.265Z,58.80
2022-12-18T00:21:23.244Z,57.90
2022-12-18T00:22:23.235Z,57.50
2022-12-18T00:23:23.224Z,58.00
2022-12-18T00:24:23.233Z,56.00
2022-12-18T00:25:23.215Z,56.00
2022-12-18T00:26:23.181Z,56.40
2022-12-18T00:27:23.185Z,57.90
2022-12-18T00:28:23.155Z,55.80
2022-12-18T00:29:23.165Z,57.20
2022-12-18T00:30:23.144Z,57.40
2022-12-18T00:31:23.175Z,56.40
2022-12-18T00:32:23.117Z,55.90
2022-12-18T00:33:23.105Z,56.60
2022-12-18T00:34:23.111Z,57.00
2022-12-18T00:35:23.087Z,56.50
2022-12-18T00:36:23.068Z,57.30
2022-12-18T00:37:23.062Z,55.20
2022-12-18T00:38:23.040Z,56.30
2022-12-18T00:39:23.045Z,53.30
2022-12-18T00:40:23.016Z,55.10
2022-12-18T00:41:23.004Z,56.10
2022-12-18T00:42:22.985Z,56.30
2022-12-18T00:43:22.987Z,57.30
2022-12-18T00:44:22.975Z,55.30
2022-12-18T00:45:23.038Z,56.60
2022-12-18T00:46:22.946Z,54.30
2022-12-18T00:47:22.926Z,59.40
2022-12-18T00:48:22.926Z,56.30
2022-12-18T00:49:22.933Z,52.40
2022-12-18T00:50:23.844Z,54.90
2022-12-18T00:51:22.885Z,55.10
2022-12-18T00:52:22.864Z,56.20
2022-12-18T00:53:22.866Z,57.70
2022-12-18T00:54:22.855Z,56.40
2022-12-18T00:55:23.793Z,59.40
2022-12-18T00:56:22.825Z,57.40
2022-12-18T00:57:22.825Z,57.70
2022-12-18T00:58:22.796Z,58.10
2022-12-18T00:59:22.808Z,57.20
2022-12-18T01:00:23.717Z,58.30
2022-12-18T01:01:22.940Z,59.00
2022-12-18T01:02:22.860Z,58.70
2022-12-18T01:03:22.754Z,57.50
2022-12-18T01:04:22.736Z,55.50
2022-12-18T01:05:22.717Z,56.30
2022-12-18T01:06:22.695Z,57.80
2022-12-18T01:07:22.714Z,56.20
2022-12-18T01:08:22.679Z,56.10
2022-12-18T01:09:22.687Z,57.60
2022-12-18T01:10:22.660Z,57.20
2022-12-18T01:11:22.646Z,58.20
2022-12-18T01:12:22.627Z,55.60
2022-12-18T01:13:22.636Z,56.30
2022-12-18T01:14:22.626Z,56.60
2022-12-18T01:15:23.575Z,56.20
2022-12-18T01:16:22.632Z,56.10
2022-12-18T01:17:22.597Z,54.30
2022-12-18T01:18:22.567Z,56.50
2022-12-18T01:19:22.576Z,57.90
2022-12-18T01:20:22.548Z,58.70
2022-12-18T01:21:22.544Z,56.70
2022-12-18T01:22:22.526Z,63.10
2022-12-18T01:23:22.505Z,61.10
2022-12-18T01:24:22.497Z,61.60
2022-12-18T01:25:22.499Z,59.50
2022-12-18T01:26:23.426Z,62.10
2022-12-18T01:27:22.457Z,60.30
2022-12-18T01:28:22.452Z,61.40
2022-12-18T01:29:22.434Z,61.20
2022-12-18T01:30:22.431Z,60.30
2022-12-18T01:31:22.434Z,60.30
2022-12-18T01:32:22.408Z,62.10
2022-12-18T01:33:22.389Z,62.60
2022-12-18T01:34:22.396Z,58.30
2022-12-18T01:35:22.380Z,56.80
2022-12-18T01:36:22.350Z,56.50
2022-12-18T01:37:22.341Z,57.40
2022-12-18T01:38:22.558Z,55.20
2022-12-18T01:39:22.318Z,56.90
2022-12-18T01:40:22.308Z,59.10
2022-12-18T01:41:22.292Z,63.40
2022-12-18T01:42:22.278Z,64.50
2022-12-18T01:43:22.261Z,66.10
2022-12-18T01:44:22.269Z,63.80
2022-12-18T01:45:22.248Z,64.70
2022-12-18T01:46:22.267Z,64.40
2022-12-18T01:47:22.219Z,65.40
2022-12-18T01:48:22.208Z,64.70
2022-12-18T01:49:22.207Z,67.90
2022-12-18T01:50:22.188Z,62.90
2022-12-18T01:51:22.167Z,64.40
2022-12-18T01:52:22.168Z,62.70
2022-12-18T01:53:22.150Z,66.10
2022-12-18T01:54:22.147Z,61.70
2022-12-18T01:55:22.129Z,62.20
2022-12-18T01:56:22.108Z,61.50
2022-12-18T01:57:22.109Z,57.10
2022-12-18T01:58:22.085Z,56.00
2022-12-18T01:59:22.089Z,56.70
2022-12-18T02:00:22.060Z,55.60
2022-12-18T02:01:22.158Z,56.10
2022-12-18T02:02:22.116Z,55.70
2022-12-18T02:03:22.138Z,56.20
2022-12-18T02:04:22.050Z,56.40
2022-12-18T02:05:22.000Z,53.30
2022-12-18T02:06:21.989Z,51.90
2022-12-18T02:07:21.969Z,52.80
2022-12-18T02:08:21.980Z,51.30
2022-12-18T02:09:21.979Z,54.40
2022-12-18T02:10:21.949Z,51.70
2022-12-18T02:11:21.933Z,51.80
2022-12-18T02:12:21.912Z,53.50
2022-12-18T02:13:21.922Z,51.20
2022-12-18T02:14:21.921Z,52.10
2022-12-18T02:15:21.881Z,51.20
2022-12-18T02:16:21.988Z,55.30
2022-12-18T02:17:21.849Z,53.00
2022-12-18T02:18:21.839Z,55.80
2022-12-18T02:19:21.831Z,55.80
2022-12-18T02:20:22.782Z,54.50
2022-12-18T02:21:21.800Z,56.70
2022-12-18T02:22:21.826Z,55.70
2022-12-18T02:23:21.781Z,54.40
2022-12-18T02:24:21.790Z,54.10
2022-12-18T02:25:21.756Z,55.30
2022-12-18T02:26:22.708Z,54.80
2022-12-18T02:27:21.729Z,56.00
2022-12-18T02:28:21.722Z,54.70
2022-12-18T02:29:21.942Z,55.90
2022-12-18T02:30:21.725Z,55.10
2022-12-18T02:31:21.679Z,53.30
2022-12-18T02:32:21.670Z,56.30
2022-12-18T02:33:21.661Z,54.40
2022-12-18T02:34:21.661Z,51.70
2022-12-18T02:35:21.637Z,53.50
2022-12-18T02:36:21.631Z,53.20
2022-12-18T02:37:21.621Z,52.20
2022-12-18T02:38:21.601Z,52.90
2022-12-18T02:39:21.603Z,52.30
2022-12-18T02:40:21.579Z,52.80
2022-12-18T02:41:21.560Z,52.20
2022-12-18T02:42:21.552Z,50.90
2022-12-18T02:43:21.531Z,50.30
2022-12-18T02:44:21.540Z,51.20
2022-12-18T02:45:21.769Z,52.00
2022-12-18T02:46:21.526Z,51.50
2022-12-18T02:47:21.490Z,51.90
2022-12-18T02:48:21.491Z,51.90
2022-12-18T02:49:21.472Z,53.90
2022-12-18T02:50:21.467Z,53.20
2022-12-18T02:51:21.440Z,52.20
2022-12-18T02:52:21.441Z,50.20
2022-12-18T02:53:21.412Z,49.90
2022-12-18T02:54:21.434Z,49.90
2022-12-18T02:55:21.391Z,50.60
2022-12-18T02:56:21.392Z,49.20
2022-12-18T02:57:21.381Z,48.80
2022-12-18T02:58:21.366Z,49.10
2022-12-18T02:59:21.381Z,52.40
2022-12-18T03:00:21.332Z,54.60
2022-12-18T03:01:21.400Z,56.60
2022-12-18T03:02:21.451Z,54.70
2022-12-18T03:03:21.328Z,58.80
2022-12-18T03:04:21.292Z,57.60
2022-12-18T03:05:21.285Z,57.80
2022-12-18T03:06:21.263Z,60.20
2022-12-18T03:07:21.243Z,58.30
2022-12-18T03:08:22.433Z,57.70
2022-12-18T03:09:21.491Z,57.50
2022-12-18T03:10:21.212Z,58.20
2022-12-18T03:11:21.203Z,58.80
2022-12-18T03:12:21.192Z,57.90
2022-12-18T03:13:21.180Z,58.00
2022-12-18T03:14:21.172Z,56.40
2022-12-18T03:15:21.163Z,59.80
2022-12-18T03:16:21.168Z,57.00
2022-12-18T03:17:21.131Z,59.50
2022-12-18T03:18:21.112Z,56.50
2022-12-18T03:19:21.293Z,58.40
2022-12-18T03:20:21.088Z,54.00
2022-12-18T03:21:21.074Z,56.40
2022-12-18T03:22:21.072Z,56.10
2022-12-18T03:23:25.539Z,53.70
2022-12-18T03:24:22.053Z,53.00
2022-12-18T03:25:21.031Z,51.40
2022-12-18T03:26:21.013Z,51.00
2022-12-18T03:27:21.003Z,49.50
2022-12-18T03:28:20.993Z,48.20
2022-12-18T03:29:21.000Z,47.00
2022-12-18T03:30:20.980Z,47.30
2022-12-18T03:31:21.004Z,47.80
2022-12-18T03:32:20.944Z,49.00
2022-12-18T03:33:20.934Z,48.30
2022-12-18T03:34:20.924Z,51.10
2022-12-18T03:35:20.914Z,50.00
2022-12-18T03:36:20.903Z,49.80
2022-12-18T03:37:20.884Z,50.00
2022-12-18T03:38:22.864Z,50.60
2022-12-18T03:39:20.873Z,50.60
2022-12-18T03:40:20.854Z,48.90
2022-12-18T03:41:20.833Z,48.50
2022-12-18T03:42:20.834Z,49.20
2022-12-18T03:43:20.834Z,49.40
2022-12-18T03:44:20.814Z,47.50
2022-12-18T03:45:20.796Z,51.30
2022-12-18T03:46:20.849Z,50.20
2022-12-18T03:47:20.768Z,47.80
2022-12-18T03:48:20.761Z,51.00
2022-12-18T03:49:20.754Z,49.60
2022-12-18T03:50:20.735Z,51.80
2022-12-18T03:51:20.714Z,51.90
2022-12-18T03:52:20.713Z,50.40
2022-12-18T03:53:20.684Z,49.10
2022-12-18T03:54:20.704Z,48.40
2022-12-18T03:55:20.685Z,50.10
2022-12-18T03:56:20.660Z,51.40
2022-12-18T03:57:20.635Z,50.30
2022-12-18T03:58:20.635Z,50.10
2022-12-18T03:59:20.626Z,50.90
2022-12-18T04:00:20.605Z,50.20
2022-12-18T04:01:20.672Z,51.10
2022-12-18T04:02:20.638Z,49.80
2022-12-18T04:03:23.957Z,49.80
2022-12-18T04:04:21.574Z,52.30
2022-12-18T04:05:20.554Z,51.30
2022-12-18T04:06:20.544Z,50.40
2022-12-18T04:07:20.524Z,52.30
2022-12-18T04:08:21.476Z,52.50
2022-12-18T04:09:20.515Z,53.70
2022-12-18T04:10:20.493Z,54.10
2022-12-18T04:11:20.476Z,51.50
2022-12-18T04:12:20.476Z,50.80
2022-12-18T04:13:20.445Z,51.80
2022-12-18T04:14:20.455Z,51.60
2022-12-18T04:15:20.425Z,51.40
2022-12-18T04:16:20.479Z,50.60
2022-12-18T04:17:20.396Z,51.50
2022-12-18T04:18:20.399Z,48.30
2022-12-18T04:19:20.385Z,49.80
2022-12-18T04:20:20.376Z,50.50
2022-12-18T04:21:20.353Z,50.20
2022-12-18T04:22:20.335Z,49.00
2022-12-18T04:23:20.325Z,50.40
2022-12-18T04:24:20.343Z,50.20
2022-12-18T04:25:20.313Z,48.50
2022-12-18T04:26:20.303Z,48.90
2022-12-18T04:27:20.276Z,48.50
2022-12-18T04:28:20.286Z,48.50
2022-12-18T04:29:20.266Z,49.00
2022-12-18T04:30:20.257Z,48.90
2022-12-18T04:31:20.247Z,49.10
2022-12-18T04:32:20.237Z,49.30
2022-12-18T04:33:20.206Z,47.30
2022-12-18T04:34:20.226Z,47.10
2022-12-18T04:35:20.187Z,48.10
2022-12-18T04:36:20.178Z,49.40
2022-12-18T04:37:20.165Z,49.60
2022-12-18T04:38:20.161Z,48.10
2022-12-18T04:39:20.147Z,48.80
2022-12-18T04:40:20.137Z,47.90
2022-12-18T04:41:20.125Z,46.80
2022-12-18T04:42:20.107Z,49.40
2022-12-18T04:43:20.195Z,48.70
2022-12-18T04:44:20.118Z,49.80
2022-12-18T04:45:20.066Z,46.70
2022-12-18T04:46:20.106Z,46.40
2022-12-18T04:47:20.056Z,45.80
2022-12-18T04:48:20.047Z,45.20
2022-12-18T04:49:20.018Z,49.60
2022-12-18T04:50:20.018Z,46.50
2022-12-18T04:51:26.112Z,43.60
2022-12-18T04:52:23.293Z,43.30
2022-12-18T04:53:19.968Z,46.00
2022-12-18T04:54:19.977Z,44.40
2022-12-18T04:55:19.948Z,44.20
2022-12-18T04:56:19.942Z,45.50
2022-12-18T04:57:19.917Z,42.90
2022-12-18T04:58:19.918Z,42.50
2022-12-18T04:59:19.918Z,43.00
2022-12-18T05:00:19.900Z,43.70
2022-12-18T05:01:19.981Z,43.80
2022-12-18T05:02:19.988Z,46.00
2022-12-18T05:03:19.888Z,46.30
2022-12-18T05:04:19.881Z,45.60
2022-12-18T05:05:19.834Z,46.80
2022-12-18T05:06:19.818Z,46.10
2022-12-18T05:07:19.806Z,44.20
2022-12-18T05:08:19.798Z,45.10
2022-12-18T05:09:19.790Z,45.10
2022-12-18T05:10:19.777Z,44.70
2022-12-18T05:11:19.758Z,45.10
2022-12-18T05:12:19.749Z,43.20
2022-12-18T05:13:19.748Z,45.10
2022-12-18T05:14:19.736Z,45.50
2022-12-18T05:15:19.710Z,44.30
2022-12-18T05:16:19.747Z,44.30
2022-12-18T05:17:19.689Z,46.30
2022-12-18T05:18:19.693Z,43.60
2022-12-18T05:19:19.678Z,45.30
2022-12-18T05:20:19.660Z,44.60
2022-12-18T05:21:19.639Z,44.40
2022-12-18T05:22:19.639Z,45.40
2022-12-18T05:23:19.618Z,43.40
2022-12-18T05:24:19.618Z,44.40
2022-12-18T05:25:19.598Z,42.70
2022-12-18T05:26:19.580Z,45.30
2022-12-18T05:27:19.568Z,43.40
2022-12-18T05:28:19.559Z,43.50
2022-12-18T05:29:19.797Z,42.00
2022-12-18T05:30:19.540Z,44.00
2022-12-18T05:31:19.553Z,41.70
2022-12-18T05:32:19.518Z,42.80
2022-12-18T05:33:19.502Z,43.00
2022-12-18T05:34:19.510Z,42.70
2022-12-18T05:35:19.478Z,43.40
2022-12-18T05:36:19.470Z,41.00
2022-12-18T05:37:19.460Z,42.30
2022-12-18T05:38:19.439Z,44.40
2022-12-18T05:39:19.461Z,44.50
2022-12-18T05:40:19.419Z,42.20
2022-12-18T05:41:19.420Z,40.90
2022-12-18T05:42:19.409Z,39.70
2022-12-18T05:43:21.402Z,39.70
2022-12-18T05:44:19.370Z,39.10
2022-12-18T05:45:19.366Z,40.20
2022-12-18T05:46:19.367Z,42.00
2022-12-18T05:47:19.341Z,39.60
2022-12-18T05:48:19.320Z,41.40
2022-12-18T05:49:19.319Z,41.30
2022-12-18T05:50:19.299Z,41.40
2022-12-18T05:51:19.291Z,39.80
2022-12-18T05:52:19.282Z,42.10
2022-12-18T05:53:19.279Z,39.60
2022-12-18T05:54:19.271Z,40.30
2022-12-18T05:55:19.250Z,40.10
2022-12-18T05:56:19.229Z,41.20
2022-12-18T05:57:19.227Z,42.60
2022-12-18T05:58:19.206Z,41.90
2022-12-18T05:59:19.214Z,42.00
2022-12-18T06:00:19.181Z,41.00
2022-12-18T06:01:19.238Z,39.30
2022-12-18T06:02:19.209Z,38.40
2022-12-18T06:03:19.225Z,40.30
2022-12-18T06:04:19.142Z,41.30
2022-12-18T06:05:19.401Z,40.00
2022-12-18T06:06:19.111Z,40.60
2022-12-18T06:07:19.101Z,39.90
2022-12-18T06:08:19.091Z,39.50
2022-12-18T06:09:19.091Z,40.50
2022-12-18T06:10:19.061Z,38.50
2022-12-18T06:11:19.062Z,38.90
2022-12-18T06:12:19.039Z,39.30
2022-12-18T06:13:19.032Z,38.40
2022-12-18T06:14:19.022Z,36.80
2022-12-18T06:15:19.002Z,37.10
2022-12-18T06:16:19.024Z,37.60
2022-12-18T06:17:18.992Z,38.90
2022-12-18T06:18:18.973Z,36.30
2022-12-18T06:19:18.974Z,37.00
2022-12-18T06:20:18.951Z,37.40
2022-12-18T06:21:18.941Z,37.90
2022-12-18T06:22:18.921Z,37.70
2022-12-18T06:23:18.912Z,36.00
2022-12-18T06:24:18.905Z,38.40
2022-12-18T06:25:18.894Z,36.60
2022-12-18T06:26:23.296Z,37.30
2022-12-18T06:27:19.872Z,36.50
2022-12-18T06:28:18.849Z,36.70
2022-12-18T06:29:18.842Z,36.70
2022-12-18T06:30:18.829Z,36.90
2022-12-18T06:31:18.911Z,36.90
2022-12-18T06:32:18.801Z,35.30
2022-12-18T06:33:18.792Z,35.70
2022-12-18T06:34:18.793Z,35.40
2022-12-18T06:35:18.772Z,36.40
2022-12-18T06:36:18.765Z,36.80
2022-12-18T06:37:18.752Z,35.50
2022-12-18T06:38:18.732Z,34.50
2022-12-18T06:39:18.733Z,36.10
2022-12-18T06:40:18.711Z,37.10
2022-12-18T06:41:18.693Z,35.30
2022-12-18T06:42:18.682Z,34.50
2022-12-18T06:43:18.664Z,37.30
2022-12-18T06:44:18.663Z,34.20
2022-12-18T06:45:18.675Z,35.10
2022-12-18T06:46:18.978Z,35.80
2022-12-18T06:47:18.622Z,35.80
2022-12-18T06:48:18.607Z,34.20
2022-12-18T06:49:18.603Z,35.50
2022-12-18T06:50:18.589Z,34.90
2022-12-18T06:51:18.576Z,33.40
2022-12-18T06:52:18.564Z,34.10
2022-12-18T06:53:18.555Z,35.40
2022-12-18T06:54:18.543Z,35.50
2022-12-18T06:55:18.522Z,33.80
2022-12-18T06:56:18.515Z,34.30
2022-12-18T06:57:18.514Z,32.80
2022-12-18T06:58:18.494Z,33.80
2022-12-18T06:59:18.487Z,35.50
2022-12-18T07:00:18.463Z,34.80
2022-12-18T07:01:18.541Z,33.60
2022-12-18T07:02:18.570Z,33.50
2022-12-18T07:03:18.429Z,34.90
2022-12-18T07:04:18.432Z,32.50
2022-12-18T07:05:18.404Z,31.80
2022-12-18T07:06:18.559Z,30.10
2022-12-18T07:07:18.388Z,30.80
2022-12-18T07:08:18.371Z,31.90
2022-12-18T07:09:18.631Z,31.30
2022-12-18T07:10:18.343Z,31.50
2022-12-18T07:11:18.336Z,32.60
2022-12-18T07:12:18.314Z,31.90
2022-12-18T07:13:18.314Z,30.70
2022-12-18T07:14:18.313Z,33.10
2022-12-18T07:15:18.284Z,30.90
2022-12-18T07:16:24.301Z,32.40
2022-12-18T07:17:19.298Z,31.00
2022-12-18T07:18:18.254Z,32.50
2022-12-18T07:19:18.245Z,31.60
2022-12-18T07:20:18.224Z,32.80
2022-12-18T07:21:18.225Z,32.90
2022-12-18T07:22:18.195Z,31.80
2022-12-18T07:23:18.206Z,30.50
2022-12-18T07:24:18.185Z,31.00
2022-12-18T07:25:18.180Z,31.70
2022-12-18T07:26:18.155Z,31.50
2022-12-18T07:27:18.155Z,29.10
2022-12-18T07:28:18.126Z,30.80
2022-12-18T07:29:18.144Z,31.60
2022-12-18T07:30:18.105Z,30.10
2022-12-18T07:31:18.137Z,31.50
2022-12-18T07:32:18.094Z,30.40
2022-12-18T07:33:18.094Z,29.80
2022-12-18T07:34:18.093Z,31.00
2022-12-18T07:35:22.051Z,30.30
2022-12-18T07:36:19.044Z,29.90
2022-12-18T07:37:18.034Z,28.70
2022-12-18T07:38:18.035Z,30.30
2022-12-18T07:39:18.060Z,31.00
2022-12-18T07:40:17.999Z,29.20
2022-12-18T07:41:18.016Z,29.70
2022-12-18T07:42:17.965Z,29.40
2022-12-18T07:43:17.961Z,29.60
2022-12-18T07:44:17.959Z,29.30
2022-12-18T07:45:17.934Z,28.70
2022-12-18T07:46:17.982Z,29.80
2022-12-18T07:47:17.908Z,29.70
2022-12-18T07:48:17.916Z,28.70
2022-12-18T07:49:17.896Z,29.00
2022-12-18T07:50:17.877Z,29.20
2022-12-18T07:51:17.866Z,27.70
2022-12-18T07:52:20.332Z,28.80
2022-12-18T07:53:18.846Z,29.00
2022-12-18T07:54:17.834Z,28.20
2022-12-18T07:55:17.817Z,28.00
2022-12-18T07:56:27.140Z,28.40
2022-12-18T07:57:41.845Z,28.80
2022-12-18T07:58:18.777Z,27.40
2022-12-18T07:59:17.776Z,27.00
2022-12-18T08:00:17.748Z,29.60
2022-12-18T08:01:17.814Z,26.70
2022-12-18T08:02:17.874Z,27.70
2022-12-18T08:03:17.796Z,27.40
2022-12-18T08:04:17.706Z,27.00
2022-12-18T08:05:17.696Z,27.30
2022-12-18T08:06:17.685Z,27.40
2022-12-18T08:07:17.667Z,26.00
2022-12-18T08:08:17.656Z,27.80
2022-12-18T08:09:17.663Z,28.50
2022-12-18T08:10:17.626Z,26.20
2022-12-18T08:11:17.647Z,28.00
2022-12-18T08:12:17.606Z,26.50
2022-12-18T08:13:17.606Z,29.20
2022-12-18T08:14:17.624Z,30.10
2022-12-18T08:15:17.578Z,28.20
2022-12-18T08:16:17.615Z,29.90
2022-12-18T08:17:17.548Z,28.20
2022-12-18T08:18:17.550Z,29.30
2022-12-18T08:19:17.535Z,28.60
2022-12-18T08:20:17.519Z,27.90
2022-12-18T08:21:17.508Z,27.80
2022-12-18T08:22:17.487Z,28.00
2022-12-18T08:23:17.491Z,27.70
2022-12-18T08:24:17.467Z,25.50
2022-12-18T08:25:17.467Z,26.00
2022-12-18T08:26:17.439Z,25.10
2022-12-18T08:27:32.778Z,25.70
2022-12-18T08:28:18.417Z,22.40
2022-12-18T08:29:21.490Z,23.60
2022-12-18T08:30:17.387Z,23.50
2022-12-18T08:31:17.409Z,22.80
2022-12-18T08:32:17.430Z,22.20
2022-12-18T08:33:17.355Z,22.30
2022-12-18T08:34:17.382Z,22.30
2022-12-18T08:35:18.796Z,23.90
2022-12-18T08:36:17.318Z,22.70
2022-12-18T08:37:17.312Z,24.40
2022-12-18T08:38:17.305Z,23.10
2022-12-18T08:39:17.298Z,23.30
2022-12-18T08:40:17.277Z,22.70
2022-12-18T08:41:17.260Z,23.40
2022-12-18T08:42:17.267Z,23.10
2022-12-18T08:43:17.238Z,23.90
2022-12-18T08:44:17.230Z,22.40
2022-12-18T08:45:17.219Z,23.20
2022-12-18T08:46:17.359Z,22.80
2022-12-18T08:47:17.194Z,24.90
2022-12-18T08:48:22.003Z,24.10
2022-12-18T08:49:18.179Z,23.00
2022-12-18T08:50:17.151Z,25.40
2022-12-18T08:51:17.148Z,25.10
2022-12-18T08:52:17.138Z,25.30
2022-12-18T08:53:17.120Z,26.50
2022-12-18T08:54:17.117Z,25.00
2022-12-18T08:55:17.104Z,24.10
2022-12-18T08:56:19.071Z,25.40
2022-12-18T08:57:17.095Z,25.10
2022-12-18T08:58:17.061Z,26.30
2022-12-18T08:59:19.677Z,24.70
2022-12-18T09:00:17.037Z,23.40
2022-12-18T09:01:17.104Z,22.90
2022-12-18T09:02:17.195Z,23.00
2022-12-18T09:03:17.027Z,22.80
2022-12-18T09:04:16.989Z,22.60
2022-12-18T09:05:16.973Z,22.30
2022-12-18T09:06:16.969Z,21.80
2022-12-18T09:07:16.955Z,22.40
2022-12-18T09:08:16.929Z,22.60
2022-12-18T09:09:16.929Z,23.10
2022-12-18T09:10:16.911Z,22.10
2022-12-18T09:11:16.915Z,22.80
2022-12-18T09:12:16.890Z,21.80
2022-12-18T09:13:16.880Z,22.80
2022-12-18T09:14:16.871Z,22.00
2022-12-18T09:15:16.871Z,22.00
2022-12-18T09:16:16.874Z,23.10
2022-12-18T09:17:16.907Z,21.50
2022-12-18T09:18:16.810Z,22.50
2022-12-18T09:19:16.827Z,20.50
2022-12-18T09:20:16.795Z,22.10
2022-12-18T09:21:16.801Z,21.60
2022-12-18T09:22:16.772Z,21.70
2022-12-18T09:23:16.762Z,20.30
2022-12-18T09:24:16.755Z,22.50
2022-12-18T09:25:16.762Z,22.10
2022-12-18T09:26:16.715Z,21.20
2022-12-18T09:27:16.711Z,21.80
2022-12-18T09:28:16.690Z,20.10
2022-12-18T09:29:18.799Z,22.00
2022-12-18T09:30:16.679Z,20.50
2022-12-18T09:31:17.652Z,20.30
2022-12-18T09:32:22.218Z,19.30
2022-12-18T09:33:17.656Z,19.80
2022-12-18T09:34:16.633Z,18.90
2022-12-18T09:35:16.602Z,20.80
2022-12-18T09:36:16.594Z,19.50
2022-12-18T09:37:16.583Z,18.50
2022-12-18T09:38:16.563Z,19.00
2022-12-18T09:39:16.572Z,20.70
2022-12-18T09:40:16.550Z,20.90
2022-12-18T09:41:17.498Z,20.60
2022-12-18T09:42:16.513Z,21.70
2022-12-18T09:43:16.511Z,21.20
2022-12-18T09:44:16.540Z,22.60
2022-12-18T09:45:16.524Z,20.60
2022-12-18T09:46:17.455Z,21.00
2022-12-18T09:47:16.452Z,20.70
2022-12-18T09:48:16.442Z,21.30
2022-12-18T09:49:16.452Z,21.30
2022-12-18T09:50:17.512Z,21.20
2022-12-18T09:51:16.421Z,17.90
2022-12-18T09:52:16.392Z,18.70
2022-12-18T09:53:16.384Z,18.20
2022-12-18T09:54:16.373Z,18.50
2022-12-18T09:55:16.362Z,17.70
2022-12-18T09:56:16.340Z,18.30
2022-12-18T09:57:16.325Z,17.50
2022-12-18T09:58:16.324Z,18.30
2022-12-18T09:59:16.313Z,18.20
2022-12-18T10:00:16.303Z,19.60
2022-12-18T10:01:16.432Z,19.00
2022-12-18T10:02:16.399Z,19.10
2022-12-18T10:03:16.358Z,19.70
2022-12-18T10:04:16.315Z,19.70
2022-12-18T10:05:16.232Z,18.20
2022-12-18T10:06:16.497Z,19.10
2022-12-18T10:07:16.236Z,19.40
2022-12-18T10:08:16.194Z,19.10
2022-12-18T10:09:16.183Z,18.50
2022-12-18T10:10:16.186Z,19.20
2022-12-18T10:11:16.161Z,18.70
2022-12-18T10:12:16.154Z,18.50
2022-12-18T10:13:16.134Z,18.10
2022-12-18T10:14:16.135Z,19.50
2022-12-18T10:15:16.098Z,19.60
2022-12-18T10:16:16.229Z,18.90
2022-12-18T10:17:16.074Z,19.90
2022-12-18T10:18:20.300Z,18.80
2022-12-18T10:19:17.055Z,19.40
2022-12-18T10:20:16.044Z,19.80
2022-12-18T10:21:16.025Z,19.60
2022-12-18T10:22:16.034Z,20.60
2022-12-18T10:23:16.012Z,20.30
2022-12-18T10:24:16.006Z,19.30
2022-12-18T10:25:15.985Z,21.20
2022-12-18T10:26:16.442Z,19.90
2022-12-18T10:27:15.956Z,20.00
2022-12-18T10:28:15.936Z,19.40
2022-12-18T10:29:15.935Z,19.20
2022-12-18T10:30:15.920Z,18.90
2022-12-18T10:31:15.974Z,20.80
2022-12-18T10:32:15.896Z,20.60
2022-12-18T10:33:15.877Z,19.30
2022-12-18T10:34:15.876Z,18.90
2022-12-18T10:35:15.861Z,19.60
2022-12-18T10:36:15.846Z,18.90
2022-12-18T10:37:15.825Z,20.40
2022-12-18T10:38:15.815Z,19.70
2022-12-18T10:39:15.805Z,19.90
2022-12-18T10:40:21.825Z,20.80
2022-12-18T10:41:16.777Z,20.20
2022-12-18T10:42:15.771Z,21.20
2022-12-18T10:43:16.715Z,19.60
2022-12-18T10:44:16.690Z,20.90
2022-12-18T10:45:15.724Z,21.30
2022-12-18T10:46:15.775Z,20.80
2022-12-18T10:47:16.661Z,21.20
2022-12-18T10:48:15.687Z,22.10
2022-12-18T10:49:15.677Z,22.40
2022-12-18T10:50:15.666Z,21.60
2022-12-18T10:51:15.647Z,20.60
2022-12-18T10:52:15.638Z,20.70
2022-12-18T10:53:15.617Z,21.50
2022-12-18T10:54:15.626Z,21.10
2022-12-18T10:55:15.586Z,20.90
2022-12-18T10:56:15.584Z,20.70
2022-12-18T10:57:16.518Z,22.30
2022-12-18T10:58:15.563Z,21.90
2022-12-18T10:59:16.507Z,22.50
2022-12-18T11:00:15.534Z,28.20
2022-12-18T11:01:15.660Z,27.60
2022-12-18T11:02:16.594Z,28.80
2022-12-18T11:03:15.615Z,30.20
2022-12-18T11:04:15.490Z,29.10
2022-12-18T11:05:15.480Z,28.60
2022-12-18T11:06:15.457Z,31.30
2022-12-18T11:07:16.408Z,37.00
2022-12-18T11:08:15.440Z,37.80
2022-12-18T11:09:15.687Z,40.40
2022-12-18T11:10:15.408Z,45.30
2022-12-18T11:11:15.395Z,47.50
2022-12-18T11:12:15.378Z,49.00
2022-12-18T11:13:15.389Z,47.90
2022-12-18T11:14:15.398Z,49.20
2022-12-18T11:15:16.289Z,48.30
2022-12-18T11:16:16.363Z,45.20
2022-12-18T11:17:31.589Z,45.70
2022-12-18T11:18:17.284Z,45.80
2022-12-18T11:19:15.341Z,42.10
2022-12-18T11:20:15.280Z,38.80
2022-12-18T11:21:15.287Z,37.40
2022-12-18T11:22:15.259Z,33.80
2022-12-18T11:23:16.197Z,35.40
2022-12-18T11:24:16.189Z,31.90
2022-12-18T11:25:33.412Z,31.40
2022-12-18T11:26:17.170Z,29.80
2022-12-18T11:27:16.157Z,29.60
2022-12-18T11:28:15.189Z,28.40
2022-12-18T11:29:16.139Z,28.00
2022-12-18T11:30:15.265Z,28.10
2022-12-18T11:31:15.186Z,27.00
2022-12-18T11:32:16.092Z,27.10
2022-12-18T11:33:15.111Z,26.70
2022-12-18T11:34:30.766Z,28.40
2022-12-18T11:35:16.101Z,27.00
2022-12-18T11:36:15.081Z,26.30
2022-12-18T11:37:15.060Z,27.50
2022-12-18T11:38:15.052Z,28.80
2022-12-18T11:39:15.991Z,27.50
2022-12-18T11:40:15.152Z,28.20
2022-12-18T11:41:15.020Z,27.90
2022-12-18T11:42:15.981Z,27.80
2022-12-18T11:43:14.984Z,27.30
2022-12-18T11:44:15.001Z,27.20
2022-12-18T11:45:14.965Z,27.10
2022-12-18T11:46:19.559Z,27.70
2022-12-18T11:47:16.893Z,28.00
2022-12-18T11:48:14.941Z,27.10
2022-12-18T11:49:14.922Z,27.10
2022-12-18T11:50:14.902Z,26.30
2022-12-18T11:51:14.891Z,28.30
2022-12-18T11:52:14.874Z,28.80
2022-12-18T11:53:14.865Z,35.10
2022-12-18T11:54:15.654Z,32.70
2022-12-18T11:55:14.848Z,33.30
2022-12-18T11:56:14.822Z,32.90
2022-12-18T11:57:14.806Z,31.20
2022-12-18T11:58:14.803Z,31.00
2022-12-18T11:59:14.792Z,29.00
2022-12-18T12:00:14.848Z,34.60
2022-12-18T12:01:14.850Z,32.20
2022-12-18T12:02:14.948Z,32.00
2022-12-18T12:03:14.865Z,29.20
2022-12-18T12:04:14.816Z,29.40
2022-12-18T12:05:14.713Z,34.60
2022-12-18T12:06:14.713Z,30.60
2022-12-18T12:07:14.683Z,31.20
2022-12-18T12:08:14.674Z,29.70
2022-12-18T12:09:14.663Z,28.00
2022-12-18T12:10:14.711Z,27.50
2022-12-18T12:11:14.647Z,25.70
2022-12-18T12:12:14.625Z,25.50
2022-12-18T12:13:14.636Z,25.80
2022-12-18T12:14:14.611Z,27.30
2022-12-18T12:15:14.584Z,25.90
2022-12-18T12:16:14.667Z,25.40
2022-12-18T12:17:14.563Z,26.00
2022-12-18T12:18:14.556Z,25.60
2022-12-18T12:19:14.542Z,25.80
2022-12-18T12:20:14.591Z,26.40
2022-12-18T12:21:14.505Z,25.20
2022-12-18T12:22:14.504Z,27.20
2022-12-18T12:23:14.491Z,24.90
2022-12-18T12:24:14.488Z,25.80
2022-12-18T12:25:14.455Z,25.60
2022-12-18T12:26:14.447Z,25.30
2022-12-18T12:27:14.432Z,24.70
2022-12-18T12:28:14.426Z,25.40
2022-12-18T12:29:19.421Z,26.40
2022-12-18T12:30:15.405Z,24.60
2022-12-18T12:31:14.430Z,24.90
2022-12-18T12:32:14.386Z,26.10
2022-12-18T12:33:14.356Z,27.40
2022-12-18T12:34:14.356Z,27.50
2022-12-18T12:35:14.338Z,27.40
2022-12-18T12:36:14.316Z,26.30
2022-12-18T12:37:14.307Z,26.40
2022-12-18T12:38:14.298Z,26.50
2022-12-18T12:39:14.286Z,26.20
2022-12-18T12:40:48.413Z,27.70
2022-12-18T12:41:15.256Z,26.80
2022-12-18T12:42:14.247Z,26.90
2022-12-18T12:43:14.244Z,27.40
2022-12-18T12:44:14.229Z,27.30
2022-12-18T12:45:14.207Z,26.80
2022-12-18T12:46:14.242Z,28.00
2022-12-18T12:47:14.186Z,25.50
2022-12-18T12:48:14.169Z,26.00
2022-12-18T12:49:14.172Z,27.50
2022-12-18T12:50:14.148Z,26.90
2022-12-18T12:51:14.126Z,26.80
2022-12-18T12:52:14.127Z,27.90